< < Back
Terminal Aerodrome Forecast


Current Version              Previous Versions:   1  2  3  4  5  6  7  8  9  

Terminal Aerodrome Forecast

585
FTUS44 KOHX 261500 AAA
TAFBNA
TAF AMD
KBNA 261504Z 2615/2712 17016G23KT P6SM SCT025 OVC035
      TEMPO 2615/2618 4SM -SHRA BR BKN025 OVC035
     FM261800 19012G25KT P6SM VCTS BKN050CB
     FM262300 19007KT P6SM SCT050 BKN250
     FM270900 19004KT 4SM BR SCT250=

Latest METAR

387
SAUS70 KWBC 261600 RRB
MTRBNA
METAR KBNA 261553Z 18015G22KT 10SM BKN028 BKN035 BKN046 26/20 A3009 RMK
AO2 SLP185 T02560200


USA.gov is the U.S. government's official web portal to all federal, state and local government web resources and services.